Time;durP1;ratioP1;P1;durP2;ratioP2;P2;SDS_P1;SDS_P2;PMS_P1;PMS_P2;Temp;Humidity;BMP_temperature;BMP_pressure;BME280_temperature;BME280_humidity;BME280_pressure;Samples;Min_cycle;Max_cycle;Signal;HPM_P1;HPM_P2
2023/05/20 00:00:40;;;;;;;3.70;2.13;;;13.50;82.10;;;;;;2101843;28;20031;-72
2023/05/20 00:01:41;;;;;;;3.05;2.10;;;13.50;82.40;;;;;;2102796;28;20024;-72
2023/05/20 00:02:41;;;;;;;3.65;2.30;;;13.50;82.80;;;;;;2104156;28;20454;-72
2023/05/20 00:03:42;;;;;;;2.83;2.08;;;13.50;83.60;;;;;;2105061;28;20024;-72
2023/05/20 00:04:43;;;;;;;2.90;2.60;;;13.50;83.90;;;;;;2101310;28;20024;-72
2023/05/20 00:05:43;;;;;;;3.05;1.98;;;13.40;84.40;;;;;;2105497;28;20398;-72
2023/05/20 00:06:44;;;;;;;3.03;2.13;;;13.40;84.60;;;;;;2102203;28;20023;-72
2023/05/20 00:07:44;;;;;;;3.20;2.38;;;13.40;84.90;;;;;;2102967;28;20016;-72
2023/05/20 00:08:45;;;;;;;3.88;2.00;;;13.40;84.10;;;;;;2104087;28;20055;-72
2023/05/20 00:09:45;;;;;;;2.13;1.90;;;13.40;84.10;;;;;;2103799;28;20831;-72
2023/05/20 00:10:46;;;;;;;2.58;2.10;;;13.40;84.10;;;;;;2105786;28;20039;-72
2023/05/20 00:11:50;;;;;;;2.35;2.00;;;13.40;83.30;;;;;;2104895;28;20043;-72
2023/05/20 00:12:50;;;;;;;3.88;1.92;;;13.30;84.40;;;;;;2103573;28;20024;-72
2023/05/20 00:13:51;;;;;;;2.80;2.33;;;13.30;85.60;;;;;;2104714;28;20032;-72
2023/05/20 00:14:51;;;;;;;3.17;2.00;;;13.30;85.70;;;;;;2104017;28;20137;-72
2023/05/20 00:15:52;;;;;;;2.28;2.08;;;13.30;85.50;;;;;;2104099;28;20951;-72
2023/05/20 00:16:53;;;;;;;2.50;1.75;;;13.30;86.00;;;;;;2105693;28;20069;-72
2023/05/20 00:17:54;;;;;;;2.13;1.63;;;13.20;86.50;;;;;;2103989;28;20056;-72
2023/05/20 00:18:55;;;;;;;3.45;2.17;;;13.20;87.00;;;;;;2105069;28;20605;-72
2023/05/20 00:19:56;;;;;;;2.80;2.17;;;13.20;86.30;;;;;;2103291;28;20122;-72
2023/05/20 00:20:56;;;;;;;2.55;2.20;;;13.20;86.60;;;;;;2104610;28;20027;-72
2023/05/20 00:21:57;;;;;;;3.55;2.20;;;13.20;86.40;;;;;;2104537;28;20040;-72
2023/05/20 00:22:58;;;;;;;3.53;2.08;;;13.20;86.30;;;;;;2106066;28;20672;-72
2023/05/20 00:23:58;;;;;;;5.07;2.20;;;13.20;87.20;;;;;;2105356;28;20016;-72
2023/05/20 00:24:59;;;;;;;4.80;2.20;;;13.20;87.30;;;;;;2103061;28;20403;-72
2023/05/20 00:25:59;;;;;;;2.85;1.95;;;13.10;86.70;;;;;;2104974;28;20027;-72
2023/05/20 00:27:01;;;;;;;3.35;2.65;;;13.10;86.30;;;;;;2106070;28;20055;-72
2023/05/20 00:28:02;;;;;;;3.47;2.20;;;13.10;88.40;;;;;;2103662;28;20024;-72
2023/05/20 00:29:02;;;;;;;2.30;2.10;;;13.10;88.40;;;;;;2101842;28;20501;-73
2023/05/20 00:30:03;;;;;;;2.30;2.10;;;13.10;87.90;;;;;;2105941;28;20023;-73
2023/05/20 00:31:04;;;;;;;2.20;2.00;;;13.10;88.30;;;;;;2105349;28;20036;-73
2023/05/20 00:32:04;;;;;;;3.70;2.10;;;13.10;88.70;;;;;;2105851;28;20823;-73
2023/05/20 00:33:05;;;;;;;3.08;1.92;;;13.10;89.40;;;;;;2103914;28;20024;-73
2023/05/20 00:34:07;;;;;;;2.80;2.20;;;13.10;88.80;;;;;;2105772;28;20576;-73
2023/05/20 00:35:08;;;;;;;2.45;2.25;;;13.00;88.80;;;;;;2102414;28;20027;-72
2023/05/20 00:36:08;;;;;;;3.63;2.03;;;13.10;89.60;;;;;;2104378;28;20586;-72
2023/05/20 00:37:09;;;;;;;3.45;2.20;;;13.00;89.60;;;;;;2103273;28;20452;-72
2023/05/20 00:38:10;;;;;;;3.72;1.92;;;13.00;90.00;;;;;;2104585;28;20028;-73
2023/05/20 00:39:11;;;;;;;3.70;2.30;;;13.00;90.00;;;;;;2104287;28;20043;-73
2023/05/20 00:40:12;;;;;;;3.80;2.00;;;13.00;90.70;;;;;;2103710;28;20132;-73
2023/05/20 00:41:12;;;;;;;3.45;2.33;;;13.00;91.00;;;;;;2101311;28;20043;-72
2023/05/20 00:42:22;;;;;;;2.90;2.05;;;13.00;91.20;;;;;;2105006;28;20031;-72
2023/05/20 00:43:24;;;;;;;2.95;1.90;;;13.00;90.60;;;;;;2101651;28;20458;-73
2023/05/20 00:44:25;;;;;;;3.15;1.83;;;12.90;90.50;;;;;;2104124;28;20580;-73
2023/05/20 00:45:26;;;;;;;2.53;1.85;;;13.00;91.10;;;;;;2103833;28;20051;-73
2023/05/20 00:46:28;;;;;;;2.65;2.08;;;12.90;90.90;;;;;;2103952;28;20040;-73
2023/05/20 00:47:33;;;;;;;2.63;1.85;;;12.90;91.50;;;;;;2104017;28;20016;-72
2023/05/20 00:48:42;;;;;;;2.20;1.73;;;12.90;91.30;;;;;;2103159;28;20023;-72
2023/05/20 00:49:45;;;;;;;5.25;2.10;;;12.90;91.60;;;;;;2102816;28;20387;-73
2023/05/20 00:50:46;;;;;;;2.10;1.90;;;12.90;91.90;;;;;;2102865;28;20036;-73
2023/05/20 00:51:47;;;;;;;4.25;2.28;;;12.90;91.20;;;;;;2103555;28;20044;-73
2023/05/20 00:52:50;;;;;;;2.00;1.65;;;12.90;91.60;;;;;;2103693;28;20020;-73
2023/05/20 00:53:51;;;;;;;3.13;1.77;;;12.90;91.50;;;;;;2103111;28;20015;-73
2023/05/20 00:54:51;;;;;;;3.05;2.15;;;12.80;91.00;;;;;;2104157;28;20024;-72
2023/05/20 00:55:52;;;;;;;3.45;2.20;;;12.80;91.40;;;;;;2104871;28;20949;-72
2023/05/20 00:56:53;;;;;;;4.07;2.08;;;12.80;92.00;;;;;;2104382;28;20380;-72
2023/05/20 00:57:54;;;;;;;4.47;2.20;;;12.80;91.80;;;;;;2103059;28;21733;-72
2023/05/20 00:58:55;;;;;;;2.75;1.95;;;12.80;91.90;;;;;;2104471;28;20055;-72
2023/05/20 00:59:56;;;;;;;2.97;2.25;;;12.80;92.10;;;;;;2102964;28;20070;-72
2023/05/20 01:00:56;;;;;;;2.53;1.77;;;12.80;92.50;;;;;;2101108;28;20032;-72
2023/05/20 01:01:57;;;;;;;4.43;2.08;;;12.80;92.00;;;;;;2103686;28;20049;-72
2023/05/20 01:02:59;;;;;;;3.95;2.25;;;12.80;92.00;;;;;;2104106;28;20032;-72
2023/05/20 01:04:00;;;;;;;2.90;2.00;;;12.80;92.70;;;;;;2102291;28;20070;-72
2023/05/20 01:05:00;;;;;;;2.35;1.90;;;12.70;93.00;;;;;;2099892;28;20032;-72
2023/05/20 01:06:01;;;;;;;3.10;2.33;;;12.80;92.40;;;;;;2097204;28;20025;-72
2023/05/20 01:07:04;;;;;;;3.25;2.10;;;12.70;92.70;;;;;;2104301;28;20035;-72
2023/05/20 01:08:05;;;;;;;2.80;2.17;;;12.80;92.60;;;;;;2103188;28;20749;-72
2023/05/20 01:09:06;;;;;;;2.58;1.77;;;12.80;92.70;;;;;;2102985;28;20016;-72
2023/05/20 01:10:08;;;;;;;2.58;2.20;;;12.70;92.50;;;;;;2102688;28;20035;-72
2023/05/20 01:11:39;;;;;;;1.80;1.67;;;12.70;92.90;;;;;;2100888;28;20028;-72
2023/05/20 01:12:47;;;;;;;2.85;1.90;;;12.70;93.10;;;;;;2103489;28;20376;-72
2023/05/20 01:13:54;;;;;;;3.50;2.40;;;12.70;93.50;;;;;;2104079;28;20062;-72
2023/05/20 01:15:04;;;;;;;2.72;1.88;;;12.70;93.90;;;;;;2105115;28;20563;-72
2023/05/20 01:16:06;;;;;;;;;;;12.60;94.30;;;;;;2102209;28;20044;-72
2023/05/20 01:17:11;;;;;;;2.58;2.10;;;12.60;94.90;;;;;;2104394;28;20291;-72
2023/05/20 01:18:17;;;;;;;3.20;2.40;;;12.60;94.50;;;;;;2103089;28;20047;-72
2023/05/20 01:19:34;;;;;;;2.88;2.03;;;12.60;94.90;;;;;;2105514;28;20027;-72
2023/05/20 01:20:34;;;;;;;4.75;1.85;;;12.60;95.00;;;;;;2101734;28;20075;-72
2023/05/20 01:21:36;;;;;;;3.28;1.90;;;12.60;94.30;;;;;;2106815;28;20488;-72
2023/05/20 01:22:57;;;;;;;4.80;2.25;;;12.60;94.40;;;;;;2103077;28;20027;-72
2023/05/20 01:23:57;;;;;;;4.57;2.15;;;12.60;96.50;;;;;;2101636;28;20039;-72
2023/05/20 01:24:58;;;;;;;2.97;2.60;;;12.60;96.00;;;;;;2105193;28;20104;-72
2023/05/20 01:25:59;;;;;;;3.22;2.30;;;12.50;96.60;;;;;;2105959;28;20020;-72
2023/05/20 01:26:59;;;;;;;2.45;2.25;;;12.50;96.90;;;;;;2100841;28;20040;-72
2023/05/20 01:28:00;;;;;;;5.28;2.35;;;12.50;96.70;;;;;;2105098;28;20073;-72
2023/05/20 01:29:03;;;;;;;3.47;2.45;;;12.50;97.40;;;;;;2105375;28;20111;-72
2023/05/20 01:30:05;;;;;;;3.75;2.65;;;12.50;97.70;;;;;;2103261;28;20084;-72
2023/05/20 01:31:22;;;;;;;3.60;2.50;;;12.50;98.10;;;;;;2104592;28;20039;-72
2023/05/20 01:32:30;;;;;;;2.75;2.28;;;12.50;98.20;;;;;;2105269;28;20028;-72
2023/05/20 01:33:35;;;;;;;2.38;1.95;;;12.50;99.00;;;;;;2105685;28;20028;-72
2023/05/20 01:34:37;;;;;;;4.75;2.53;;;12.50;98.40;;;;;;2103899;28;20043;-72
2023/05/20 01:35:40;;;;;;;4.32;2.40;;;12.50;98.70;;;;;;2105182;28;20024;-72
2023/05/20 01:36:41;;;;;;;3.83;2.30;;;12.40;98.10;;;;;;2105049;28;20028;-72
2023/05/20 01:37:43;;;;;;;2.45;2.25;;;12.40;98.60;;;;;;2104123;28;20058;-72
2023/05/20 01:38:43;;;;;;;3.08;2.60;;;12.50;99.10;;;;;;2103933;28;20038;-72
2023/05/20 01:39:45;;;;;;;4.25;2.53;;;12.40;99.20;;;;;;2100904;28;20030;-72
2023/05/20 01:40:47;;;;;;;3.42;2.03;;;12.50;99.20;;;;;;2102241;28;20095;-72
2023/05/20 01:41:49;;;;;;;7.82;2.30;;;12.40;98.50;;;;;;2102794;28;20017;-72
2023/05/20 01:42:53;;;;;;;2.28;2.08;;;12.40;99.20;;;;;;2103896;28;20403;-72
2023/05/20 01:43:55;;;;;;;2.78;2.45;;;12.50;98.70;;;;;;2103089;28;20427;-72
2023/05/20 01:44:55;;;;;;;3.67;2.55;;;12.40;99.60;;;;;;2104643;28;20141;-72
2023/05/20 01:45:56;;;;;;;3.88;2.00;;;12.40;99.90;;;;;;2102274;28;20127;-72
2023/05/20 01:46:58;;;;;;;3.97;2.20;;;12.40;99.90;;;;;;2102785;28;20035;-72
2023/05/20 01:48:00;;;;;;;3.92;2.67;;;12.40;99.90;;;;;;2103587;28;20032;-72
2023/05/20 01:49:00;;;;;;;2.65;2.20;;;12.40;99.90;;;;;;2102109;28;20016;-72
2023/05/20 01:50:01;;;;;;;2.67;1.90;;;12.40;99.90;;;;;;2103275;28;20024;-72
2023/05/20 01:51:02;;;;;;;7.63;2.95;;;12.50;99.90;;;;;;2103328;28;20032;-72
2023/05/20 01:52:03;;;;;;;4.57;2.47;;;12.50;99.90;;;;;;2104383;28;20032;-72
2023/05/20 01:53:04;;;;;;;5.22;2.90;;;12.50;99.90;;;;;;2102528;28;20032;-72
2023/05/20 01:54:05;;;;;;;4.50;2.40;;;12.40;99.90;;;;;;2104238;28;20024;-72
2023/05/20 01:55:06;;;;;;;3.15;2.40;;;12.40;99.90;;;;;;2104867;28;20043;-72
2023/05/20 01:56:06;;;;;;;3.35;2.38;;;12.40;99.90;;;;;;2103924;28;20036;-72
2023/05/20 01:57:07;;;;;;;5.45;2.88;;;12.40;99.90;;;;;;2103019;28;20468;-72
2023/05/20 01:58:07;;;;;;;6.40;2.65;;;12.40;99.90;;;;;;2102565;28;20102;-72
2023/05/20 01:59:08;;;;;;;5.00;2.58;;;12.40;99.90;;;;;;2105968;28;20143;-72
2023/05/20 02:00:09;;;;;;;3.33;2.38;;;12.40;99.90;;;;;;2094973;28;20380;-72
2023/05/20 02:01:10;;;;;;;3.22;2.25;;;12.40;99.90;;;;;;2103039;28;20028;-72
2023/05/20 02:02:10;;;;;;;4.70;2.65;;;12.40;99.90;;;;;;2105331;28;20405;-72
2023/05/20 02:03:11;;;;;;;4.82;2.53;;;12.40;99.90;;;;;;2101667;28;20050;-72
2023/05/20 02:04:11;;;;;;;5.68;2.60;;;12.40;99.90;;;;;;2104998;28;20036;-72
2023/05/20 02:05:12;;;;;;;3.00;2.45;;;12.40;99.90;;;;;;2103426;28;20518;-72
2023/05/20 02:06:13;;;;;;;3.50;2.53;;;12.40;99.90;;;;;;2103534;28;20111;-72
2023/05/20 02:07:14;;;;;;;4.00;2.60;;;12.40;99.90;;;;;;2106140;28;20073;-72
2023/05/20 02:08:15;;;;;;;3.25;2.80;;;12.40;99.90;;;;;;2098852;28;20496;-72
2023/05/20 02:09:17;;;;;;;2.53;2.33;;;12.40;99.90;;;;;;2105206;28;20441;-72
2023/05/20 02:10:17;;;;;;;4.28;2.50;;;12.40;99.90;;;;;;2106968;28;20472;-72
2023/05/20 02:11:18;;;;;;;2.80;2.40;;;12.40;99.90;;;;;;2105861;28;20433;-73
2023/05/20 02:12:18;;;;;;;3.78;2.70;;;12.40;99.90;;;;;;2105793;28;20078;-73
2023/05/20 02:13:19;;;;;;;5.85;2.30;;;12.40;99.90;;;;;;2104050;28;20118;-72
2023/05/20 02:14:20;;;;;;;3.65;3.00;;;12.40;99.90;;;;;;2104829;28;20028;-72
2023/05/20 02:15:20;;;;;;;6.35;3.00;;;12.40;99.90;;;;;;2104339;28;20024;-72
2023/05/20 02:16:21;;;;;;;3.33;2.63;;;12.40;99.90;;;;;;2106103;28;20043;-72
2023/05/20 02:17:22;;;;;;;2.65;2.42;;;12.40;99.90;;;;;;2105118;28;20024;-72
2023/05/20 02:18:25;;;;;;;3.03;2.72;;;12.40;99.90;;;;;;2104908;28;20032;-72
2023/05/20 02:19:25;;;;;;;3.83;2.72;;;12.40;99.90;;;;;;2105185;28;20032;-73
2023/05/20 02:20:26;;;;;;;3.60;2.47;;;12.40;99.90;;;;;;2103853;28;20043;-73
2023/05/20 02:21:26;;;;;;;6.60;2.75;;;12.40;99.90;;;;;;2104396;28;20690;-73
2023/05/20 02:22:27;;;;;;;4.10;2.35;;;12.40;99.90;;;;;;2109012;28;20108;-73
2023/05/20 02:23:28;;;;;;;3.63;2.47;;;12.40;99.90;;;;;;2102963;28;20770;-73
2023/05/20 02:24:28;;;;;;;4.90;2.67;;;12.40;99.90;;;;;;2106649;28;20020;-72
2023/05/20 02:25:29;;;;;;;3.10;2.35;;;12.40;99.90;;;;;;2104764;28;20023;-72
2023/05/20 02:26:29;;;;;;;5.22;2.63;;;12.40;99.90;;;;;;2105131;28;20026;-72
2023/05/20 02:27:30;;;;;;;3.67;2.60;;;12.40;99.90;;;;;;2106332;28;20027;-72
2023/05/20 02:28:30;;;;;;;5.20;2.65;;;12.40;99.90;;;;;;2105092;28;20032;-73
2023/05/20 02:29:31;;;;;;;2.60;2.33;;;12.40;99.90;;;;;;2105991;28;20024;-73
2023/05/20 02:30:32;;;;;;;3.97;2.20;;;12.40;99.90;;;;;;2104224;28;20136;-73
2023/05/20 02:31:32;;;;;;;4.18;2.20;;;12.40;99.90;;;;;;2105194;28;20538;-73
2023/05/20 02:32:33;;;;;;;1.90;1.70;;;12.40;99.90;;;;;;2103967;28;20024;-73
2023/05/20 02:33:33;;;;;;;3.53;2.45;;;12.40;99.90;;;;;;2103819;28;20039;-73
2023/05/20 02:34:34;;;;;;;4.05;2.35;;;12.40;99.90;;;;;;2104404;28;20486;-73
2023/05/20 02:35:35;;;;;;;5.80;2.47;;;12.40;99.90;;;;;;2104386;28;20638;-73
2023/05/20 02:36:35;;;;;;;4.00;2.60;;;12.40;99.90;;;;;;2107350;28;20036;-73
2023/05/20 02:37:38;;;;;;;3.53;2.50;;;12.40;99.90;;;;;;2107032;28;20051;-73
2023/05/20 02:38:38;;;;;;;3.78;2.50;;;12.30;99.90;;;;;;2103624;28;20009;-73
2023/05/20 02:39:39;;;;;;;2.53;2.30;;;12.30;99.90;;;;;;2104641;28;20811;-73
2023/05/20 02:40:43;;;;;;;2.42;2.20;;;12.30;99.90;;;;;;2104766;28;20020;-73
2023/05/20 02:41:44;;;;;;;3.08;2.40;;;12.30;99.90;;;;;;2103622;28;20617;-73
2023/05/20 02:42:45;;;;;;;3.58;2.72;;;12.30;99.90;;;;;;2105974;28;20012;-73
2023/05/20 02:43:46;;;;;;;2.92;2.63;;;12.30;99.90;;;;;;2103917;28;20404;-72
2023/05/20 02:44:46;;;;;;;3.00;2.42;;;12.30;99.90;;;;;;2105686;28;20024;-72
2023/05/20 02:45:47;;;;;;;4.10;2.40;;;12.30;99.90;;;;;;2103708;28;20054;-72
2023/05/20 02:46:47;;;;;;;3.78;2.35;;;12.30;99.90;;;;;;2105259;28;20023;-72
2023/05/20 02:47:48;;;;;;;2.63;2.17;;;12.30;99.90;;;;;;2107468;28;20020;-72
2023/05/20 02:48:48;;;;;;;3.53;2.50;;;12.30;99.90;;;;;;2105495;28;20467;-72
2023/05/20 02:49:49;;;;;;;3.47;2.80;;;12.30;99.90;;;;;;2105735;28;20073;-72
2023/05/20 02:50:50;;;;;;;2.67;2.33;;;12.30;99.90;;;;;;2104443;28;20086;-72
2023/05/20 02:51:50;;;;;;;5.35;2.55;;;12.30;99.90;;;;;;2105228;28;20028;-73
2023/05/20 02:52:51;;;;;;;3.13;2.55;;;12.30;99.90;;;;;;2103856;28;20022;-73
2023/05/20 02:53:51;;;;;;;3.05;2.28;;;12.30;99.90;;;;;;2105494;28;20020;-73
2023/05/20 02:54:52;;;;;;;3.35;2.28;;;12.30;99.90;;;;;;2105329;28;20526;-73
2023/05/20 02:55:52;;;;;;;4.93;2.28;;;12.30;99.90;;;;;;2104289;28;20028;-73
2023/05/20 02:56:53;;;;;;;3.10;2.50;;;12.30;99.90;;;;;;2104919;28;20095;-73
2023/05/20 02:57:53;;;;;;;2.50;2.30;;;12.30;99.90;;;;;;2105529;28;20028;-73
2023/05/20 02:58:54;;;;;;;5.38;2.60;;;12.30;99.90;;;;;;2106962;28;20086;-73
2023/05/20 02:59:55;;;;;;;3.25;2.78;;;12.30;99.90;;;;;;2104041;28;20488;-72
2023/05/20 03:00:56;;;;;;;2.38;2.00;;;12.30;99.90;;;;;;2104813;28;20403;-72
2023/05/20 03:01:56;;;;;;;4.32;2.35;;;12.30;99.90;;;;;;2105721;28;20043;-72
2023/05/20 03:02:57;;;;;;;3.78;2.67;;;12.30;99.90;;;;;;2105898;28;20042;-72
2023/05/20 03:03:58;;;;;;;3.42;2.45;;;12.30;99.90;;;;;;2103161;28;20415;-72
2023/05/20 03:04:59;;;;;;;2.40;1.95;;;12.30;99.90;;;;;;2104934;28;20024;-72
2023/05/20 03:05:59;;;;;;;3.38;2.78;;;12.30;99.90;;;;;;2104801;28;20063;-72
2023/05/20 03:07:00;;;;;;;2.97;2.42;;;12.30;99.90;;;;;;2104798;28;20030;-72
2023/05/20 03:08:01;;;;;;;4.07;2.40;;;12.30;99.90;;;;;;2105484;28;20507;-72
2023/05/20 03:09:01;;;;;;;4.28;2.60;;;12.30;99.90;;;;;;2104177;28;20082;-72
2023/05/20 03:10:03;;;;;;;5.53;2.47;;;12.30;99.90;;;;;;2103671;28;20065;-72
2023/05/20 03:11:04;;;;;;;4.22;2.97;;;12.30;99.90;;;;;;2103532;28;20024;-72
2023/05/20 03:12:05;;;;;;;2.63;2.42;;;12.30;99.90;;;;;;2104383;28;20019;-72
2023/05/20 03:13:07;;;;;;;4.07;2.50;;;12.30;99.90;;;;;;2101765;28;20365;-72
2023/05/20 03:14:08;;;;;;;4.40;2.40;;;12.30;99.90;;;;;;2103665;28;20016;-72
2023/05/20 03:15:09;;;;;;;3.40;2.45;;;12.30;99.90;;;;;;2102051;28;20035;-73
2023/05/20 03:16:11;;;;;;;2.25;2.05;;;12.30;99.90;;;;;;2104609;28;20028;-73
2023/05/20 03:17:12;;;;;;;6.38;2.78;;;12.30;99.90;;;;;;2104159;28;20024;-73
2023/05/20 03:18:12;;;;;;;2.78;2.28;;;12.30;99.90;;;;;;2103640;28;20089;-73
2023/05/20 03:19:13;;;;;;;3.92;2.40;;;12.30;99.90;;;;;;2102743;28;20032;-73
2023/05/20 03:20:15;;;;;;;4.55;2.60;;;12.20;99.90;;;;;;2104208;28;20122;-73
2023/05/20 03:21:16;;;;;;;3.38;2.50;;;12.20;99.90;;;;;;2104952;28;20036;-73
2023/05/20 03:22:16;;;;;;;5.00;2.60;;;12.30;99.90;;;;;;2103529;28;20060;-73
2023/05/20 03:23:17;;;;;;;3.83;2.50;;;12.30;99.90;;;;;;2104973;28;20024;-73
2023/05/20 03:24:17;;;;;;;3.08;2.25;;;12.30;99.90;;;;;;2103193;28;20028;-73
2023/05/20 03:25:18;;;;;;;6.20;2.60;;;12.30;99.90;;;;;;2105748;28;20034;-73
2023/05/20 03:26:18;;;;;;;3.65;2.60;;;12.30;99.90;;;;;;2103615;28;20031;-73
2023/05/20 03:27:20;;;;;;;4.13;2.60;;;12.30;99.90;;;;;;2105446;28;20059;-73
2023/05/20 03:28:20;;;;;;;7.28;2.55;;;12.30;99.90;;;;;;2105199;28;20047;-73
2023/05/20 03:29:22;;;;;;;4.88;3.03;;;12.20;99.90;;;;;;2104627;28;20051;-73
2023/05/20 03:30:23;;;;;;;4.57;2.35;;;12.20;99.90;;;;;;2104378;28;20028;-73
2023/05/20 03:31:24;;;;;;;3.22;2.80;;;12.20;99.90;;;;;;2102445;28;20531;-73
2023/05/20 03:32:25;;;;;;;3.33;2.45;;;12.20;99.90;;;;;;2106165;28;20387;-72
2023/05/20 03:33:25;;;;;;;4.20;2.33;;;12.20;99.90;;;;;;2106760;28;20024;-72
2023/05/20 03:34:27;;;;;;;2.97;2.50;;;12.20;99.90;;;;;;2104358;28;20055;-72
2023/05/20 03:35:28;;;;;;;2.28;2.08;;;12.20;99.90;;;;;;2105016;28;20019;-72
2023/05/20 03:36:29;;;;;;;2.03;1.80;;;12.20;99.90;;;;;;2105153;28;20032;-72
2023/05/20 03:37:30;;;;;;;6.22;2.75;;;12.20;99.90;;;;;;2104465;28;20524;-72
2023/05/20 03:38:31;;;;;;;2.67;2.47;;;12.20;99.90;;;;;;2104095;28;20057;-72
2023/05/20 03:39:31;;;;;;;2.58;2.38;;;12.20;99.90;;;;;;2102788;28;20035;-72
2023/05/20 03:40:32;;;;;;;3.50;2.33;;;12.20;99.90;;;;;;2103156;28;20106;-73
2023/05/20 03:41:32;;;;;;;2.80;2.00;;;12.20;99.90;;;;;;2105065;28;20463;-72
2023/05/20 03:42:33;;;;;;;2.97;2.22;;;12.20;99.90;;;;;;2101080;28;20097;-72
2023/05/20 03:43:34;;;;;;;2.65;2.40;;;12.20;99.90;;;;;;2107653;28;20024;-72
2023/05/20 03:44:34;;;;;;;2.95;1.95;;;12.20;99.90;;;;;;2103055;28;20028;-72
2023/05/20 03:45:35;;;;;;;3.42;2.60;;;12.20;99.90;;;;;;2106007;28;20016;-72
2023/05/20 03:46:36;;;;;;;3.70;2.35;;;12.20;99.90;;;;;;2106936;28;20021;-72
2023/05/20 03:47:36;;;;;;;2.50;2.17;;;12.20;99.90;;;;;;2104871;28;20036;-72
2023/05/20 03:48:37;;;;;;;4.10;2.30;;;12.20;99.90;;;;;;2105449;28;20020;-72
2023/05/20 03:49:39;;;;;;;3.50;2.38;;;12.20;99.90;;;;;;2103503;28;20531;-72
2023/05/20 03:50:40;;;;;;;4.65;2.63;;;12.20;99.90;;;;;;2103972;28;20091;-72
2023/05/20 03:51:40;;;;;;;5.25;2.70;;;12.20;99.90;;;;;;2104215;28;20031;-73
2023/05/20 03:52:41;;;;;;;5.57;2.38;;;12.10;99.90;;;;;;2102740;28;20051;-73
2023/05/20 03:53:41;;;;;;;4.00;2.38;;;12.10;99.90;;;;;;2104670;28;20054;-72
2023/05/20 03:54:42;;;;;;;4.13;2.97;;;12.10;99.90;;;;;;2103312;28;20050;-72
2023/05/20 03:55:43;;;;;;;2.58;2.38;;;12.20;99.90;;;;;;2105783;28;20058;-72
2023/05/20 03:56:45;;;;;;;3.65;2.55;;;12.20;99.90;;;;;;2103193;28;20012;-73
2023/05/20 03:57:46;;;;;;;2.72;2.30;;;12.20;99.90;;;;;;2105984;28;20027;-73
2023/05/20 03:58:47;;;;;;;2.70;2.38;;;12.10;99.90;;;;;;2102873;28;20046;-73
2023/05/20 03:59:47;;;;;;;3.85;2.55;;;12.20;99.90;;;;;;2104365;28;20505;-73
2023/05/20 04:00:48;;;;;;;9.82;3.10;;;12.20;99.90;;;;;;2102609;28;20518;-73
2023/05/20 04:01:49;;;;;;;3.10;2.60;;;12.20;99.90;;;;;;2103296;28;20021;-73
2023/05/20 04:02:49;;;;;;;3.20;2.28;;;12.20;99.90;;;;;;2104690;28;20027;-73
2023/05/20 04:03:50;;;;;;;4.47;2.50;;;12.20;99.90;;;;;;2101826;28;20027;-72
2023/05/20 04:04:51;;;;;;;3.55;2.40;;;12.20;99.90;;;;;;2103958;28;20032;-72
2023/05/20 04:05:52;;;;;;;3.17;2.55;;;12.20;99.90;;;;;;2103461;28;20020;-72
2023/05/20 04:06:53;;;;;;;3.95;2.60;;;12.20;99.90;;;;;;2104555;28;20028;-72
2023/05/20 04:07:53;;;;;;;3.67;2.80;;;12.20;99.90;;;;;;2104161;28;20021;-72
2023/05/20 04:08:54;;;;;;;2.42;2.22;;;12.20;99.90;;;;;;2105134;28;20023;-72
2023/05/20 04:09:54;;;;;;;3.30;2.65;;;12.20;99.90;;;;;;2104712;28;20028;-72
2023/05/20 04:10:58;;;;;;;3.83;2.35;;;12.20;99.90;;;;;;2106473;28;20407;-72
2023/05/20 04:11:58;;;;;;;3.63;3.08;;;12.20;99.90;;;;;;2102974;28;20073;-72
2023/05/20 04:12:59;;;;;;;3.30;3.00;;;12.20;99.90;;;;;;2104239;28;20032;-72
2023/05/20 04:14:00;;;;;;;6.10;2.65;;;12.20;99.90;;;;;;2104741;28;20375;-72
2023/05/20 04:15:01;;;;;;;5.90;2.42;;;12.20;99.90;;;;;;2105819;28;20118;-72
2023/05/20 04:16:01;;;;;;;6.13;3.90;;;12.30;99.90;;;;;;2106356;28;20035;-72
2023/05/20 04:17:04;;;;;;;4.35;2.50;;;12.30;99.90;;;;;;2105012;28;20058;-72
2023/05/20 04:18:05;;;;;;;3.15;2.60;;;12.30;99.90;;;;;;2104840;28;20486;-72
2023/05/20 04:19:06;;;;;;;3.80;2.70;;;12.30;99.90;;;;;;2105559;28;20080;-72
2023/05/20 04:20:07;;;;;;;5.63;2.60;;;12.30;99.90;;;;;;2102869;28;20105;-72
2023/05/20 04:21:07;;;;;;;2.97;2.63;;;12.30;99.90;;;;;;2103053;28;20032;-72
2023/05/20 04:22:08;;;;;;;7.38;2.92;;;12.30;99.90;;;;;;2106045;28;20081;-72
2023/05/20 04:23:08;;;;;;;3.58;2.33;;;12.30;99.90;;;;;;2105301;28;20024;-72
2023/05/20 04:24:09;;;;;;;6.32;2.80;;;12.30;99.90;;;;;;2104082;28;20055;-72
2023/05/20 04:25:11;;;;;;;4.07;2.10;;;12.30;99.90;;;;;;2105642;28;20539;-72
2023/05/20 04:26:11;;;;;;;4.15;2.47;;;12.40;99.90;;;;;;2103986;28;20098;-73
2023/05/20 04:27:12;;;;;;;7.60;2.85;;;12.40;99.90;;;;;;2103855;28;20091;-73
2023/05/20 04:28:15;;;;;;;4.22;2.80;;;12.40;99.90;;;;;;2102419;28;20495;-73
2023/05/20 04:29:15;;;;;;;3.83;2.63;;;12.40;99.90;;;;;;2105390;28;20063;-73
2023/05/20 04:30:17;;;;;;;7.05;3.13;;;12.50;99.90;;;;;;2103279;28;20499;-73
2023/05/20 04:31:19;;;;;;;3.70;2.97;;;12.70;99.90;;;;;;2106683;28;20016;-73
2023/05/20 04:32:20;;;;;;;3.80;2.45;;;12.80;99.90;;;;;;2106941;28;20118;-73
2023/05/20 04:33:20;;;;;;;5.90;2.58;;;13.00;99.90;;;;;;2105759;28;20020;-73
2023/05/20 04:34:25;;;;;;;5.07;2.60;;;13.10;99.90;;;;;;2105750;28;20057;-72
2023/05/20 04:35:26;;;;;;;2.80;2.33;;;13.10;99.90;;;;;;2106030;28;20035;-72
2023/05/20 04:36:27;;;;;;;5.32;2.97;;;13.20;99.90;;;;;;2101694;28;20031;-72
2023/05/20 04:37:28;;;;;;;2.78;2.58;;;13.20;99.90;;;;;;2105000;28;20036;-72
2023/05/20 04:38:29;;;;;;;3.50;2.67;;;13.20;99.90;;;;;;2101893;28;20028;-72
2023/05/20 04:39:30;;;;;;;3.72;2.70;;;13.20;99.90;;;;;;2106012;28;20488;-72
2023/05/20 04:40:31;;;;;;;7.70;2.80;;;13.30;99.90;;;;;;2102758;28;20658;-73
2023/05/20 04:41:31;;;;;;;4.53;2.65;;;13.30;99.90;;;;;;2104444;28;20024;-73
2023/05/20 04:42:32;;;;;;;3.40;2.50;;;13.30;99.90;;;;;;2103215;28;20046;-73
2023/05/20 04:43:33;;;;;;;3.05;2.70;;;13.30;99.90;;;;;;2104650;28;20028;-73
2023/05/20 04:44:33;;;;;;;3.35;2.40;;;13.40;99.90;;;;;;2104307;28;20611;-73
2023/05/20 04:45:35;;;;;;;3.97;2.70;;;13.40;99.90;;;;;;2104467;28;20020;-73
2023/05/20 04:46:35;;;;;;;2.75;2.45;;;13.40;99.90;;;;;;2104495;28;20123;-73
2023/05/20 04:47:37;;;;;;;3.70;2.60;;;13.50;99.90;;;;;;2104796;28;20038;-73
2023/05/20 04:48:38;;;;;;;3.30;2.60;;;13.50;99.90;;;;;;2105506;28;20015;-73
2023/05/20 04:49:38;;;;;;;3.03;2.35;;;13.50;99.90;;;;;;2105231;28;20529;-73
2023/05/20 04:50:40;;;;;;;4.13;3.00;;;13.50;99.90;;;;;;2105005;28;20024;-73
2023/05/20 04:51:42;;;;;;;3.38;2.40;;;13.60;99.90;;;;;;2102025;28;20034;-73
2023/05/20 04:52:44;;;;;;;6.20;3.00;;;13.70;99.90;;;;;;2103440;28;20020;-73
2023/05/20 04:53:45;;;;;;;3.97;2.95;;;13.70;99.90;;;;;;2106177;28;20103;-73
2023/05/20 04:54:45;;;;;;;5.25;2.80;;;13.80;99.90;;;;;;2105641;28;20020;-73
2023/05/20 04:55:47;;;;;;;3.15;2.88;;;13.80;99.90;;;;;;2106389;28;20515;-73
2023/05/20 04:56:47;;;;;;;5.18;2.42;;;13.90;99.90;;;;;;2103128;28;20032;-73
2023/05/20 04:57:48;;;;;;;3.72;2.33;;;14.00;99.90;;;;;;2106430;28;20020;-73
2023/05/20 04:58:49;;;;;;;4.78;3.00;;;14.10;99.90;;;;;;2102926;28;20028;-73
2023/05/20 04:59:49;;;;;;;4.53;2.67;;;14.20;99.90;;;;;;2105490;28;20029;-73
2023/05/20 05:00:51;;;;;;;3.83;2.70;;;14.20;99.90;;;;;;2104879;28;20035;-73
2023/05/20 05:01:51;;;;;;;3.75;2.85;;;14.30;99.90;;;;;;2101343;28;22248;-72
2023/05/20 05:02:52;;;;;;;3.85;2.65;;;14.30;99.90;;;;;;2103182;28;20094;-72
2023/05/20 05:03:52;;;;;;;4.13;2.60;;;14.40;99.90;;;;;;2104498;28;20020;-72
2023/05/20 05:04:53;;;;;;;3.35;2.67;;;14.50;99.90;;;;;;2106039;28;20240;-73
2023/05/20 05:05:57;;;;;;;2.70;2.22;;;14.60;99.90;;;;;;2107091;28;20054;-73
2023/05/20 05:06:57;;;;;;;2.90;2.30;;;14.70;99.90;;;;;;2101999;28;20028;-72
2023/05/20 05:07:58;;;;;;;6.82;2.60;;;14.70;99.90;;;;;;2105679;28;20024;-73
2023/05/20 05:08:59;;;;;;;5.35;3.03;;;14.80;99.90;;;;;;2104518;28;20024;-73
2023/05/20 05:09:59;;;;;;;4.68;2.28;;;14.80;99.90;;;;;;2104370;28;20059;-73
2023/05/20 05:11:00;;;;;;;4.78;2.72;;;14.90;99.90;;;;;;2105294;28;20024;-73
2023/05/20 05:12:01;;;;;;;3.10;2.00;;;15.00;99.90;;;;;;2105077;28;20122;-73
2023/05/20 05:13:02;;;;;;;3.72;2.40;;;15.00;99.90;;;;;;2104939;28;20024;-73
2023/05/20 05:14:02;;;;;;;4.40;2.28;;;15.10;99.90;;;;;;2103760;28;20023;-73
2023/05/20 05:15:03;;;;;;;3.83;2.72;;;15.20;99.90;;;;;;2104153;28;20708;-73
2023/05/20 05:16:05;;;;;;;4.07;2.60;;;15.30;99.90;;;;;;2106440;28;20024;-73
2023/05/20 05:17:05;;;;;;;3.90;2.30;;;15.30;99.90;;;;;;2103720;28;20054;-73
2023/05/20 05:18:06;;;;;;;4.57;3.10;;;15.40;99.90;;;;;;2104148;28;20479;-73
2023/05/20 05:19:07;;;;;;;3.97;2.97;;;15.40;99.90;;;;;;2103264;28;20115;-73
2023/05/20 05:20:08;;;;;;;3.72;2.70;;;15.50;99.90;;;;;;2105806;28;20028;-73